createdAt,value
2019-03-21T00:00:57.754Z,8.30
2019-03-21T00:03:24.320Z,8.20
2019-03-21T00:05:50.767Z,8.40
2019-03-21T00:08:17.265Z,8.20
2019-03-21T00:11:04.198Z,8.10
2019-03-21T00:13:30.543Z,8.00
2019-03-21T00:16:00.120Z,8.20
2019-03-21T00:18:26.579Z,8.40
2019-03-21T00:20:53.033Z,8.00
2019-03-21T00:23:19.773Z,8.50
2019-03-21T00:25:46.479Z,8.50
2019-03-21T00:28:12.864Z,8.40
2019-03-21T00:30:39.472Z,8.20
2019-03-21T00:33:05.939Z,8.40
2019-03-21T00:35:32.421Z,8.30
2019-03-21T00:37:58.992Z,8.20
2019-03-21T00:40:40.317Z,8.40
2019-03-21T00:43:09.401Z,8.40
2019-03-21T00:45:35.959Z,8.20
2019-03-21T00:48:04.752Z,8.30
2019-03-21T00:50:31.141Z,8.30
2019-03-21T00:52:57.575Z,8.20
2019-03-21T00:55:30.846Z,8.30
2019-03-21T00:57:58.710Z,8.40
2019-03-21T01:00:43.752Z,8.40
2019-03-21T01:03:11.436Z,8.40
2019-03-21T01:05:37.920Z,8.00
2019-03-21T01:08:04.807Z,8.20
2019-03-21T01:10:31.464Z,8.00
2019-03-21T01:12:57.924Z,7.80
2019-03-21T01:15:24.909Z,8.10
2019-03-21T01:17:51.733Z,7.90
2019-03-21T01:20:18.295Z,8.10
2019-03-21T01:22:45.147Z,8.10
2019-03-21T01:25:18.388Z,7.80
2019-03-21T01:27:45.208Z,7.80
2019-03-21T01:30:17.008Z,8.10
2019-03-21T01:32:44.362Z,7.90
2019-03-21T01:35:11.205Z,8.10
2019-03-21T01:37:38.073Z,7.80
2019-03-21T01:40:11.313Z,8.10
2019-03-21T01:42:37.768Z,7.80
2019-03-21T01:45:11.179Z,7.80
2019-03-21T01:47:37.636Z,8.10
2019-03-21T01:50:08.181Z,7.80
2019-03-21T01:52:34.637Z,8.10
2019-03-21T01:55:05.001Z,7.60
2019-03-21T01:57:31.738Z,8.00
2019-03-21T01:59:58.212Z,8.10
2019-03-21T02:02:24.918Z,8.10
2019-03-21T02:04:51.483Z,8.00
2019-03-21T02:07:18.292Z,7.50
2019-03-21T02:09:45.138Z,8.10
2019-03-21T02:12:11.675Z,7.50
2019-03-21T02:14:38.411Z,7.80
2019-03-21T02:17:04.949Z,7.70
2019-03-21T02:19:31.336Z,7.50
2019-03-21T02:21:58.224Z,7.80
2019-03-21T02:24:24.592Z,7.80
2019-03-21T02:26:51.411Z,7.50
2019-03-21T02:29:17.859Z,7.80
2019-03-21T02:31:44.348Z,7.80
2019-03-21T02:34:10.804Z,7.70
2019-03-21T02:36:37.747Z,7.50
2019-03-21T02:39:05.312Z,7.80
2019-03-21T02:41:32.052Z,7.50
2019-03-21T02:43:58.522Z,7.40
2019-03-21T02:46:27.483Z,7.20
2019-03-21T02:48:54.153Z,7.50
2019-03-21T02:51:20.636Z,7.40
2019-03-21T02:53:47.089Z,7.40
2019-03-21T02:56:17.375Z,7.10
2019-03-21T02:58:43.825Z,7.50
2019-03-21T03:01:13.988Z,7.50
2019-03-21T03:04:00.330Z,7.50
2019-03-21T03:06:27.106Z,7.50
2019-03-21T03:08:54.051Z,7.50
2019-03-21T03:11:23.417Z,7.20
2019-03-21T03:13:50.186Z,7.50
2019-03-21T03:16:17.952Z,7.40
2019-03-21T03:18:44.904Z,7.50
2019-03-21T03:21:11.576Z,7.10
2019-03-21T03:23:38.060Z,7.10
2019-03-21T03:26:04.602Z,6.90
2019-03-21T03:28:40.663Z,6.80
2019-03-21T03:31:07.146Z,7.20
2019-03-21T03:33:33.733Z,6.80
2019-03-21T03:36:00.186Z,6.50
2019-03-21T03:38:26.723Z,7.00
2019-03-21T03:40:59.296Z,6.90
2019-03-21T03:43:25.757Z,6.80
2019-03-21T03:45:52.312Z,7.00
2019-03-21T03:48:20.222Z,7.10
2019-03-21T03:50:46.932Z,7.10
2019-03-21T03:53:13.412Z,6.90
2019-03-21T03:55:39.950Z,7.20
2019-03-21T03:58:18.475Z,7.00
2019-03-21T04:00:44.885Z,7.00
2019-03-21T04:03:11.454Z,7.00
2019-03-21T04:05:37.995Z,6.80
2019-03-21T04:08:05.069Z,7.20
2019-03-21T04:10:45.524Z,7.00
2019-03-21T04:13:12.784Z,6.80
2019-03-21T04:15:51.722Z,7.10
2019-03-21T04:18:07.613Z,6.80
2019-03-21T04:20:37.968Z,6.90
2019-03-21T04:23:04.648Z,6.80
2019-03-21T04:25:34.917Z,6.60
2019-03-21T04:28:01.494Z,7.00
2019-03-21T04:30:27.941Z,7.00
2019-03-21T04:32:54.450Z,6.60
2019-03-21T04:35:20.880Z,6.80
2019-03-21T04:37:47.460Z,6.90
2019-03-21T04:40:15.812Z,6.60
2019-03-21T04:42:42.290Z,6.80
2019-03-21T04:45:15.639Z,6.50
2019-03-21T04:47:42.125Z,6.80
2019-03-21T04:50:13.820Z,6.40
2019-03-21T04:52:40.292Z,6.30
2019-03-21T04:55:10.361Z,6.40
2019-03-21T04:57:37.034Z,6.50
2019-03-21T05:00:22.088Z,6.30
2019-03-21T05:02:50.064Z,6.20
2019-03-21T05:05:16.985Z,6.30
2019-03-21T05:07:43.560Z,6.20
2019-03-21T05:10:12.610Z,6.60
2019-03-21T05:12:39.088Z,6.40
2019-03-21T05:15:24.244Z,6.20
2019-03-21T05:17:54.213Z,6.40
2019-03-21T05:20:23.667Z,6.20
2019-03-21T05:22:50.426Z,6.40
2019-03-21T05:25:17.079Z,6.20
2019-03-21T05:27:43.529Z,6.40
2019-03-21T05:30:30.971Z,6.50
2019-03-21T05:32:57.344Z,6.80
2019-03-21T05:35:23.847Z,6.30
2019-03-21T05:37:50.281Z,6.60
2019-03-21T05:40:19.078Z,6.50
2019-03-21T05:43:18.239Z,6.40
2019-03-21T05:45:44.705Z,6.00
2019-03-21T05:48:11.160Z,6.50
2019-03-21T05:50:37.639Z,6.10
2019-03-21T05:53:04.489Z,6.20
2019-03-21T05:55:30.965Z,6.20
2019-03-21T05:57:57.415Z,6.30
2019-03-21T06:00:30.780Z,5.90
2019-03-21T06:02:57.179Z,6.20
2019-03-21T06:05:24.543Z,6.40
2019-03-21T06:08:15.559Z,6.00
2019-03-21T06:10:42.626Z,6.10
2019-03-21T06:13:09.074Z,6.00
2019-03-21T06:15:40.199Z,6.10
2019-03-21T06:18:16.749Z,5.90
2019-03-21T06:21:11.725Z,6.30
2019-03-21T06:24:13.874Z,6.30
2019-03-21T06:26:58.579Z,6.50
2019-03-21T06:29:25.189Z,6.20
2019-03-21T06:31:51.740Z,6.40
2019-03-21T06:34:18.299Z,6.20
2019-03-21T06:36:44.772Z,6.50
2019-03-21T06:39:11.211Z,6.40
2019-03-21T06:41:37.713Z,6.20
2019-03-21T06:44:04.352Z,6.60
2019-03-21T06:46:31.018Z,6.60
2019-03-21T06:48:57.377Z,6.70
2019-03-21T06:51:23.855Z,6.60
2019-03-21T06:53:50.308Z,6.70
2019-03-21T06:56:16.791Z,6.60
2019-03-21T06:58:43.436Z,6.90
2019-03-21T07:01:09.950Z,7.00
2019-03-21T07:03:36.498Z,7.00
2019-03-21T07:06:03.195Z,7.00
2019-03-21T07:08:29.775Z,7.30
2019-03-21T07:10:58.361Z,6.80
2019-03-21T07:13:24.919Z,7.20
2019-03-21T07:15:51.496Z,7.20
2019-03-21T07:18:17.948Z,7.20
2019-03-21T07:20:44.515Z,7.00
2019-03-21T07:23:10.859Z,7.00
2019-03-21T07:25:37.631Z,7.50
2019-03-21T07:28:04.272Z,7.20
2019-03-21T07:30:30.928Z,7.80
2019-03-21T07:32:57.416Z,7.50
2019-03-21T07:35:23.876Z,7.70
2019-03-21T07:37:50.343Z,8.10
2019-03-21T07:40:16.801Z,7.80
2019-03-21T07:42:43.590Z,8.00
2019-03-21T07:45:11.135Z,8.10
2019-03-21T07:47:37.636Z,8.40
2019-03-21T07:50:13.505Z,8.20
2019-03-21T07:52:40.274Z,8.40
2019-03-21T07:55:08.423Z,8.80
2019-03-21T07:57:35.088Z,8.80
2019-03-21T08:00:07.752Z,8.90
2019-03-21T08:02:34.363Z,8.90
2019-03-21T08:05:00.816Z,8.80
2019-03-21T08:07:27.300Z,9.10
2019-03-21T08:09:54.120Z,9.60
2019-03-21T08:12:20.888Z,9.70
2019-03-21T08:14:47.347Z,10.00
2019-03-21T08:17:13.854Z,9.90
2019-03-21T08:19:40.312Z,9.80
2019-03-21T08:22:07.258Z,10.30
2019-03-21T08:24:33.660Z,10.80
2019-03-21T08:27:00.154Z,11.40
2019-03-21T08:29:26.635Z,11.70
2019-03-21T08:31:53.228Z,13.20
2019-03-21T08:34:19.801Z,13.20
2019-03-21T08:36:46.400Z,14.90
2019-03-21T08:39:12.965Z,14.80
2019-03-21T08:41:39.800Z,14.00
2019-03-21T08:44:06.485Z,15.00
2019-03-21T08:46:33.115Z,16.20
2019-03-21T08:48:59.657Z,16.80
2019-03-21T08:51:26.213Z,16.00
2019-03-21T08:53:53.107Z,18.60
2019-03-21T08:56:19.661Z,19.20
2019-03-21T08:58:46.055Z,19.00
2019-03-21T09:01:12.604Z,17.90
2019-03-21T09:03:39.174Z,17.70
2019-03-21T09:06:06.194Z,17.50
2019-03-21T09:08:32.756Z,18.70
2019-03-21T09:10:59.214Z,17.70
2019-03-21T09:13:25.792Z,16.90
2019-03-21T09:15:52.334Z,17.70
2019-03-21T09:18:18.908Z,17.20
2019-03-21T09:20:45.356Z,19.10
2019-03-21T09:23:11.833Z,19.40
2019-03-21T09:25:38.381Z,21.60
2019-03-21T09:28:05.372Z,22.00
2019-03-21T09:30:32.162Z,21.40
2019-03-21T09:32:58.655Z,22.10
2019-03-21T09:35:25.202Z,22.40
2019-03-21T09:37:51.661Z,23.60
2019-03-21T09:40:18.246Z,23.50
2019-03-21T09:42:45.244Z,23.20
2019-03-21T09:45:12.826Z,23.20
2019-03-21T09:47:39.381Z,22.90
2019-03-21T09:50:07.743Z,24.90
2019-03-21T09:52:36.609Z,23.30
2019-03-21T09:55:05.503Z,22.90
2019-03-21T09:57:31.978Z,25.30
2019-03-21T10:00:00.570Z,25.30
2019-03-21T10:02:27.030Z,26.60
2019-03-21T10:04:53.656Z,24.30
2019-03-21T10:07:20.219Z,24.80
2019-03-21T10:09:47.195Z,26.10
2019-03-21T10:12:13.656Z,24.90
2019-03-21T10:14:40.138Z,23.20
2019-03-21T10:17:06.882Z,24.90
2019-03-21T10:19:33.373Z,25.10
2019-03-21T10:21:59.912Z,25.60
2019-03-21T10:24:26.798Z,26.60
2019-03-21T10:26:53.560Z,26.50
2019-03-21T10:29:20.382Z,24.80
2019-03-21T10:31:46.967Z,25.70
2019-03-21T10:34:13.965Z,25.80
2019-03-21T10:36:40.336Z,25.90
2019-03-21T10:39:07.244Z,27.50
2019-03-21T10:41:33.736Z,25.90
2019-03-21T10:44:00.620Z,26.70
2019-03-21T10:46:27.097Z,28.90
2019-03-21T10:48:53.571Z,28.20
2019-03-21T10:51:20.156Z,25.70
2019-03-21T10:53:46.594Z,24.80
2019-03-21T10:56:12.984Z,26.60
2019-03-21T10:58:39.429Z,24.80
2019-03-21T11:01:05.815Z,23.70
2019-03-21T11:03:32.499Z,24.80
2019-03-21T11:06:01.801Z,27.10
2019-03-21T11:08:28.242Z,27.60
2019-03-21T11:10:54.720Z,26.60
2019-03-21T11:13:21.615Z,25.00
2019-03-21T11:15:48.771Z,23.80
2019-03-21T11:18:15.449Z,22.10
2019-03-21T11:20:41.893Z,21.70
2019-03-21T11:23:08.483Z,21.70
2019-03-21T11:25:35.225Z,24.10
2019-03-21T11:28:02.157Z,23.20
2019-03-21T11:30:33.404Z,22.80
2019-03-21T11:33:00.075Z,24.60
2019-03-21T11:35:26.545Z,26.90
2019-03-21T11:37:53.007Z,26.50
2019-03-21T11:40:19.958Z,25.80
2019-03-21T11:42:46.537Z,25.40
2019-03-21T11:45:15.092Z,25.60
2019-03-21T11:47:42.370Z,25.30
2019-03-21T11:50:09.143Z,25.00
2019-03-21T11:52:36.016Z,23.90
2019-03-21T11:55:05.268Z,24.40
2019-03-21T11:57:32.058Z,25.20
2019-03-21T11:59:58.800Z,24.70
2019-03-21T12:02:27.317Z,24.30
2019-03-21T12:04:53.848Z,25.40
2019-03-21T12:07:20.386Z,25.40
2019-03-21T12:09:47.083Z,26.20
2019-03-21T12:12:13.632Z,25.60
2019-03-21T12:14:40.577Z,24.50
2019-03-21T12:17:07.023Z,23.10
2019-03-21T12:19:33.407Z,22.20
2019-03-21T12:22:00.191Z,22.60
2019-03-21T12:24:26.706Z,22.80
2019-03-21T12:26:53.357Z,23.70
2019-03-21T12:29:19.832Z,22.60
2019-03-21T12:31:46.313Z,24.30
2019-03-21T12:34:12.903Z,24.70
2019-03-21T12:36:39.468Z,25.30
2019-03-21T12:39:06.943Z,25.90
2019-03-21T12:41:33.419Z,26.10
2019-03-21T12:44:00.248Z,25.10
2019-03-21T12:46:26.717Z,25.30
2019-03-21T12:48:53.168Z,24.00
2019-03-21T12:51:20.049Z,22.70
2019-03-21T12:53:46.614Z,22.90
2019-03-21T12:56:13.207Z,24.50
2019-03-21T12:58:39.858Z,25.60
2019-03-21T13:01:06.500Z,25.70
2019-03-21T13:03:33.202Z,24.80
2019-03-21T13:05:59.647Z,25.30
2019-03-21T13:08:33.773Z,25.70
2019-03-21T13:10:54.489Z,25.00
2019-03-21T13:13:21.335Z,24.40
2019-03-21T13:15:47.902Z,25.40
2019-03-21T13:18:14.924Z,26.30
2019-03-21T13:20:41.481Z,28.10
2019-03-21T13:23:08.177Z,28.00
2019-03-21T13:25:34.843Z,26.70
2019-03-21T13:28:01.494Z,25.00
2019-03-21T13:30:28.098Z,25.10
2019-03-21T13:32:54.548Z,24.90
2019-03-21T13:35:31.930Z,24.50
2019-03-21T13:37:49.683Z,24.40
2019-03-21T13:40:16.089Z,24.00
2019-03-21T13:42:42.932Z,23.60
2019-03-21T13:45:09.881Z,25.20
2019-03-21T13:47:36.455Z,24.60
2019-03-21T13:50:08.211Z,23.80
2019-03-21T13:52:34.585Z,23.40
2019-03-21T13:55:01.654Z,22.90
2019-03-21T13:57:28.315Z,24.10
2019-03-21T13:59:55.237Z,24.40
2019-03-21T14:02:21.695Z,24.20
2019-03-21T14:04:48.616Z,23.90
2019-03-21T14:07:15.074Z,24.20
2019-03-21T14:09:41.574Z,24.50
2019-03-21T14:12:08.205Z,23.70
2019-03-21T14:14:34.687Z,24.20
2019-03-21T14:17:01.604Z,25.20
2019-03-21T14:19:28.072Z,25.00
2019-03-21T14:21:54.540Z,25.00
2019-03-21T14:24:21.212Z,25.50
2019-03-21T14:26:47.659Z,24.00
2019-03-21T14:29:14.126Z,24.70
2019-03-21T14:31:40.594Z,24.80
2019-03-21T14:34:07.771Z,23.50
2019-03-21T14:36:34.316Z,23.40
2019-03-21T14:39:00.776Z,23.40
2019-03-21T14:41:27.127Z,23.60
2019-03-21T14:43:53.502Z,24.50
2019-03-21T14:46:20.343Z,23.70
2019-03-21T14:48:46.812Z,23.70
2019-03-21T14:51:13.640Z,23.80
2019-03-21T14:53:40.192Z,24.60
2019-03-21T14:56:06.657Z,24.10
2019-03-21T14:58:33.220Z,23.50
2019-03-21T15:00:59.797Z,24.00
2019-03-21T15:03:26.609Z,24.20
2019-03-21T15:05:53.178Z,24.20
2019-03-21T15:08:19.656Z,23.30
2019-03-21T15:10:46.265Z,22.90
2019-03-21T15:13:12.711Z,22.10
2019-03-21T15:15:39.494Z,22.00
2019-03-21T15:18:05.937Z,21.50
2019-03-21T15:20:32.767Z,21.30
2019-03-21T15:22:59.208Z,21.20
2019-03-21T15:25:25.686Z,20.60
2019-03-21T15:27:52.160Z,21.10
2019-03-21T15:30:19.546Z,20.90
2019-03-21T15:32:46.319Z,20.60
2019-03-21T15:35:15.495Z,20.40
2019-03-21T15:37:42.169Z,19.70
2019-03-21T15:40:11.520Z,19.90
2019-03-21T15:42:38.079Z,19.90
2019-03-21T15:45:21.581Z,19.80
2019-03-21T15:47:37.267Z,19.70
2019-03-21T15:50:06.762Z,19.70
2019-03-21T15:52:33.232Z,19.80
2019-03-21T15:55:00.053Z,19.70
2019-03-21T15:57:26.628Z,19.90
2019-03-21T15:59:53.159Z,20.00
2019-03-21T16:02:19.608Z,20.20
2019-03-21T16:04:46.090Z,20.20
2019-03-21T16:07:12.924Z,20.40
2019-03-21T16:09:39.298Z,20.20
2019-03-21T16:12:06.216Z,19.80
2019-03-21T16:14:32.941Z,19.50
2019-03-21T16:16:59.516Z,19.50
2019-03-21T16:19:25.974Z,19.40
2019-03-21T16:21:52.447Z,19.70
2019-03-21T16:24:18.912Z,19.60
2019-03-21T16:26:45.574Z,19.20
2019-03-21T16:29:12.462Z,19.20
2019-03-21T16:31:39.051Z,18.50
2019-03-21T16:34:05.516Z,18.60
2019-03-21T16:36:32.108Z,18.40
2019-03-21T16:38:58.564Z,18.40
2019-03-21T16:41:25.130Z,18.60
2019-03-21T16:43:51.599Z,18.50
2019-03-21T16:46:18.068Z,18.40
2019-03-21T16:48:44.447Z,18.50
2019-03-21T16:51:11.287Z,18.40
2019-03-21T16:53:38.131Z,18.30
2019-03-21T16:56:04.873Z,18.50
2019-03-21T16:58:31.356Z,17.90
2019-03-21T17:00:57.812Z,17.90
2019-03-21T17:03:24.314Z,17.80
2019-03-21T17:05:50.752Z,17.80
2019-03-21T17:08:17.252Z,18.00
2019-03-21T17:10:44.109Z,17.60
2019-03-21T17:13:10.695Z,17.40
2019-03-21T17:15:37.698Z,17.90
2019-03-21T17:18:04.633Z,17.70
2019-03-21T17:20:31.078Z,17.70
2019-03-21T17:22:57.908Z,17.70
2019-03-21T17:25:24.630Z,17.50
2019-03-21T17:27:51.203Z,17.20
2019-03-21T17:30:18.092Z,17.30
2019-03-21T17:32:44.690Z,17.20
2019-03-21T17:35:11.781Z,17.30
2019-03-21T17:37:38.343Z,17.00
2019-03-21T17:40:10.988Z,16.80
2019-03-21T17:42:37.755Z,16.80
2019-03-21T17:45:08.402Z,16.50
2019-03-21T17:47:35.243Z,16.70
2019-03-21T17:50:02.717Z,16.10
2019-03-21T17:52:29.666Z,16.30
2019-03-21T17:54:56.293Z,16.00
2019-03-21T17:57:33.936Z,16.20
2019-03-21T17:59:51.697Z,15.90
2019-03-21T18:02:18.543Z,16.00
2019-03-21T18:04:45.320Z,16.20
2019-03-21T18:07:11.774Z,15.90
2019-03-21T18:09:38.456Z,15.70
2019-03-21T18:12:05.401Z,15.70
2019-03-21T18:14:31.948Z,15.50
2019-03-21T18:16:58.390Z,15.40
2019-03-21T18:19:24.833Z,15.40
2019-03-21T18:21:51.492Z,15.30
2019-03-21T18:24:18.399Z,15.40
2019-03-21T18:26:45.129Z,15.00
2019-03-21T18:29:11.574Z,15.20
2019-03-21T18:31:38.082Z,15.10
2019-03-21T18:34:04.637Z,15.10
2019-03-21T18:36:31.382Z,15.20
2019-03-21T18:38:59.945Z,14.70
2019-03-21T18:41:26.908Z,14.80
2019-03-21T18:43:53.377Z,15.00
2019-03-21T18:46:19.742Z,14.70
2019-03-21T18:48:46.516Z,14.70
2019-03-21T18:51:13.015Z,14.90
2019-03-21T18:53:39.585Z,14.80
2019-03-21T18:56:06.027Z,14.80
2019-03-21T18:58:32.516Z,14.70
2019-03-21T19:00:59.065Z,14.20
2019-03-21T19:03:25.933Z,14.20
2019-03-21T19:05:52.399Z,14.30
2019-03-21T19:08:18.984Z,14.30
2019-03-21T19:10:45.479Z,14.20
2019-03-21T19:13:11.931Z,14.30
2019-03-21T19:15:38.817Z,14.10
2019-03-21T19:18:05.472Z,13.70
2019-03-21T19:20:31.968Z,14.00
2019-03-21T19:22:58.416Z,14.00
2019-03-21T19:25:25.024Z,13.60
2019-03-21T19:27:51.740Z,14.00
2019-03-21T19:30:19.124Z,13.60
2019-03-21T19:32:45.812Z,13.60
2019-03-21T19:35:12.503Z,13.50
2019-03-21T19:37:38.881Z,13.60
2019-03-21T19:40:13.216Z,13.50
2019-03-21T19:42:39.868Z,13.50
2019-03-21T19:45:09.157Z,13.50
2019-03-21T19:47:35.712Z,13.60
2019-03-21T19:50:07.899Z,13.50
2019-03-21T19:52:34.485Z,13.40
2019-03-21T19:55:01.151Z,13.50
2019-03-21T19:57:27.735Z,13.50
2019-03-21T19:59:54.314Z,13.50
2019-03-21T20:02:20.830Z,13.50
2019-03-21T20:04:48.378Z,13.20
2019-03-21T20:07:15.322Z,13.10
2019-03-21T20:09:41.905Z,13.20
2019-03-21T20:12:08.578Z,13.00
2019-03-21T20:14:55.013Z,13.00
2019-03-21T20:17:21.843Z,13.40
2019-03-21T20:19:48.433Z,13.10
2019-03-21T20:22:14.889Z,12.90
2019-03-21T20:24:41.661Z,12.80
2019-03-21T20:27:09.984Z,13.00
2019-03-21T20:29:36.501Z,12.60
2019-03-21T20:32:03.175Z,12.90
2019-03-21T20:34:29.748Z,12.60
2019-03-21T20:36:56.589Z,12.60
2019-03-21T20:39:23.056Z,12.40
2019-03-21T20:41:49.630Z,12.60
2019-03-21T20:44:16.101Z,12.50
2019-03-21T20:46:42.559Z,12.40
2019-03-21T20:49:08.940Z,12.40
2019-03-21T20:51:35.697Z,12.00
2019-03-21T20:54:02.503Z,12.30
2019-03-21T20:56:29.073Z,12.30
2019-03-21T20:58:55.532Z,12.00
2019-03-21T21:01:22.467Z,12.10
2019-03-21T21:03:48.903Z,12.10
2019-03-21T21:06:35.349Z,12.00
2019-03-21T21:09:02.138Z,11.90
2019-03-21T21:11:28.633Z,12.10
2019-03-21T21:13:55.079Z,12.10
2019-03-21T21:16:21.745Z,11.90
2019-03-21T21:18:48.108Z,12.00
2019-03-21T21:21:14.589Z,11.70
2019-03-21T21:23:41.356Z,11.50
2019-03-21T21:26:07.848Z,11.50
2019-03-21T21:28:34.952Z,11.50
2019-03-21T21:31:01.860Z,11.60
2019-03-21T21:33:28.833Z,11.60
2019-03-21T21:35:55.312Z,11.60
2019-03-21T21:38:21.798Z,11.60
2019-03-21T21:40:48.327Z,11.00
2019-03-21T21:43:14.806Z,11.00
2019-03-21T21:45:41.382Z,11.00
2019-03-21T21:48:07.769Z,11.20
2019-03-21T21:50:34.433Z,11.20
2019-03-21T21:53:00.911Z,11.30
2019-03-21T21:55:27.356Z,11.10
2019-03-21T21:57:53.945Z,11.10
2019-03-21T22:00:21.236Z,11.30
2019-03-21T22:02:48.010Z,11.00
2019-03-21T22:05:14.677Z,11.20
2019-03-21T22:07:41.552Z,11.00
2019-03-21T22:10:08.919Z,10.90
2019-03-21T22:12:35.710Z,11.10
2019-03-21T22:15:05.368Z,11.10
2019-03-21T22:17:32.208Z,10.60
2019-03-21T22:19:59.051Z,10.70
2019-03-21T22:22:25.665Z,10.60
2019-03-21T22:24:52.225Z,10.60
2019-03-21T22:27:19.275Z,10.50
2019-03-21T22:29:46.015Z,10.50
2019-03-21T22:32:13.064Z,11.00
2019-03-21T22:34:39.554Z,11.00
2019-03-21T22:37:06.123Z,10.70
2019-03-21T22:39:32.609Z,10.60
2019-03-21T22:41:59.410Z,10.70
2019-03-21T22:44:25.984Z,10.90
2019-03-21T22:46:52.790Z,11.20
2019-03-21T22:49:19.267Z,10.70
2019-03-21T22:51:45.729Z,11.00
2019-03-21T22:54:12.217Z,10.60
2019-03-21T22:56:41.613Z,10.50
2019-03-21T22:59:06.962Z,10.50
2019-03-21T23:01:33.951Z,10.80
2019-03-21T23:04:02.772Z,10.60
2019-03-21T23:06:28.984Z,10.20
2019-03-21T23:08:56.021Z,10.60
2019-03-21T23:11:22.764Z,10.80
2019-03-21T23:13:49.815Z,10.60
2019-03-21T23:16:16.526Z,10.60
2019-03-21T23:18:43.287Z,10.50
2019-03-21T23:21:09.685Z,10.30
2019-03-21T23:23:36.171Z,10.50
2019-03-21T23:26:03.098Z,10.40
2019-03-21T23:28:29.714Z,10.20
2019-03-21T23:30:56.144Z,10.20
2019-03-21T23:33:22.928Z,10.10
2019-03-21T23:35:49.412Z,10.30
2019-03-21T23:38:15.863Z,9.80
2019-03-21T23:40:42.563Z,10.00
2019-03-21T23:43:09.005Z,9.90
2019-03-21T23:45:35.388Z,10.40
2019-03-21T23:48:02.333Z,9.90
2019-03-21T23:50:28.999Z,9.80
2019-03-21T23:52:55.932Z,9.90
2019-03-21T23:55:22.606Z,9.80
2019-03-21T23:57:48.957Z,9.90
